Linden, Michigan
Current Conditions -  °F | °C
As of 1:53 PM on Sunday 23 Nov 2014 (Local Time) from KFNT Reporting Station
Scattered Clouds Scattered Clouds  
Wind Chill: 52°   Ceiling: Unl
Heat Index: 52°   Visibility: 10mi
Dew Point: 44°   Wind: 10mph
Humidity: 74%   Direction: 160°SSE
Pressure: 29.76"   Gusts: NA
Location:  42.81°N, 83.78°W
Report Text: KFNT 231853Z 16009KT 10SM SCT085 11/07 A2976 RMK AO2 SLP078 T01110067
Loading
Personal Weather Stations






























Interactive Weather Map New forecast layout! Learn more

10-Day Weather Forecast

Advertisements
Track Severe Weather on mobile